Time;durP1;ratioP1;P1;durP2;ratioP2;P2;SDS_P1;SDS_P2;PMS_P1;PMS_P2;Temp;Humidity;BMP_temperature;BMP_pressure;BME280_temperature;BME280_humidity;BME280_pressure;Samples;Min_cycle;Max_cycle;Signal;HPM_P1;HPM_P2
2023/03/10 00:00:38;;;;;;;7.80;5.63;;;;;;;10.94;100.00;99297.91;5005499;28;20046;-71
2023/03/10 00:03:04;;;;;;;9.48;5.80;;;;;;;11.69;100.00;99432.97;5006372;28;20042;-70
2023/03/10 00:05:30;;;;;;;9.00;4.93;;;;;;;11.53;100.00;99426.28;5007486;28;20552;-74
2023/03/10 00:07:55;;;;;;;9.07;5.25;;;;;;;10.22;100.00;99186.44;5003704;28;20030;-71
2023/03/10 00:10:21;;;;;;;10.65;5.65;;;;;;;11.49;100.00;99417.59;5030251;28;20100;-72
2023/03/10 00:12:46;;;;;;;10.93;5.32;;;;;;;11.08;100.00;99343.13;5006476;28;20049;-69
2023/03/10 00:15:13;;;;;;;11.63;6.15;;;;;;;10.92;100.00;99295.28;5001780;28;20139;-70
2023/03/10 00:17:39;;;;;;;12.85;5.85;;;;;;;11.51;100.00;99417.56;5007054;28;20050;-73
2023/03/10 00:20:10;;;;;;;9.93;5.93;;;;;;;11.50;100.00;99406.19;5004717;28;20711;-69
2023/03/10 00:22:36;;;;;;;10.27;6.05;;;;;;;10.56;100.00;99260.16;5001275;28;20089;-74
2023/03/10 00:25:02;;;;;;;8.43;6.25;;;;;;;10.62;100.00;99283.63;4999494;28;20418;-71
2023/03/10 00:27:27;;;;;;;9.80;5.95;;;;;;;11.24;100.00;99388.31;4999543;28;20034;-71
2023/03/10 00:29:52;;;;;;;9.32;6.32;;;;;;;11.50;100.00;99416.69;4998427;28;20125;-70
2023/03/10 00:32:18;;;;;;;9.55;5.95;;;;;;;11.23;100.00;99398.84;4985046;28;20050;-70
2023/03/10 00:34:44;;;;;;;10.82;5.88;;;;;;;11.37;100.00;99415.22;4981427;28;20038;-73
2023/03/10 00:37:09;;;;;;;8.95;5.68;;;;;;;11.20;100.00;99408.50;4996665;28;20057;-71
2023/03/10 00:39:35;;;;;;;10.63;6.10;;;;;;;11.00;100.00;99402.75;4999706;28;20528;-70
2023/03/10 00:42:00;;;;;;;9.98;6.25;;;;;;;10.98;100.00;99362.56;4999167;28;20046;-71
2023/03/10 00:44:27;;;;;;;11.20;6.20;;;;;;;11.39;100.00;99409.03;5001835;28;20042;-70
2023/03/10 00:46:53;;;;;;;11.18;6.63;;;;;;;11.12;100.00;99405.19;4994952;28;20053;-71
2023/03/10 00:49:19;;;;;;;11.07;7.45;;;;;;;11.27;100.00;99429.41;4985594;28;20058;-70
2023/03/10 00:51:45;;;;;;;8.43;6.05;;;;;;;11.26;100.00;99420.69;4987898;28;20784;-69
2023/03/10 00:54:11;;;;;;;9.25;7.05;;;;;;;10.53;100.00;99300.38;4999465;28;20125;-72
2023/03/10 00:56:37;;;;;;;10.23;7.13;;;;;;;11.26;100.00;99433.81;4999671;28;20039;-71
2023/03/10 00:59:03;;;;;;;10.68;7.05;;;;;;;11.30;100.00;99434.59;5001493;28;20033;-72
2023/03/10 01:01:46;;;;;;;15.73;6.30;;;;;;;11.03;100.00;99446.47;4998919;28;20076;-72
2023/03/10 01:04:17;;;;;;;9.40;6.50;;;;;;;10.39;100.00;99304.16;4999621;28;20573;-72
2023/03/10 01:06:45;;;;;;;11.35;6.45;;;;;;;10.17;100.00;99301.00;4996090;28;20046;-72
2023/03/10 01:09:10;;;;;;;10.88;7.43;;;;;;;10.33;100.00;99295.50;4998471;28;20069;-73
2023/03/10 01:11:36;;;;;;;15.75;7.50;;;;;;;10.84;100.00;99406.53;4999452;28;20080;-73
2023/03/10 01:14:04;;;;;;;9.57;6.03;;;;;;;11.03;100.00;99431.59;5004321;28;20460;-74
2023/03/10 01:16:30;;;;;;;11.20;5.90;;;;;;;10.92;100.00;99423.03;5003226;28;20516;-74
2023/03/10 01:18:57;;;;;;;9.45;5.90;;;;;;;10.08;100.00;99302.88;5002697;28;20046;-70
2023/03/10 01:21:25;;;;;;;10.18;7.65;;;;;;;10.15;100.00;99288.75;4996595;28;20370;-73
2023/03/10 01:23:50;;;;;;;15.10;8.68;;;;;;;10.08;100.00;99278.41;5005360;28;20841;-70
2023/03/10 01:26:17;;;;;;;9.32;7.53;;;;;;;10.07;100.00;99277.56;5003860;28;20180;-72
2023/03/10 01:28:42;;;;;;;11.88;6.95;;;;;;;10.84;100.00;99402.19;5003241;28;20099;-73
2023/03/10 01:31:08;;;;;;;8.25;6.57;;;;;;;10.18;100.00;99279.13;5004467;28;20049;-72
2023/03/10 01:33:35;;;;;;;11.70;6.70;;;;;;;10.87;100.00;99419.63;4993873;28;20046;-73
2023/03/10 01:36:05;;;;;;;11.00;7.93;;;;;;;10.06;100.00;99286.28;5002210;28;20058;-73
2023/03/10 01:38:31;;;;;;;14.30;6.63;;;;;;;10.19;100.00;99288.72;5004930;28;20731;-71
2023/03/10 01:40:57;;;;;;;8.82;6.80;;;;;;;10.85;100.00;99396.03;5001891;28;20036;-72
2023/03/10 01:43:30;;;;;;;14.13;8.55;;;;;;;10.83;100.00;99387.31;5004965;28;20465;-72
2023/03/10 01:46:01;;;;;;;11.43;7.30;;;;;;;10.68;100.00;99384.97;5003727;28;20207;-70
2023/03/10 01:48:31;;;;;;;10.52;6.95;;;;;;;9.92;100.00;99246.34;4995137;28;20038;-72
2023/03/10 01:50:57;;;;;;;12.07;8.18;;;;;;;10.71;100.00;99379.66;5007633;28;20046;-71
2023/03/10 01:53:26;;;;;;;11.50;8.23;;;;;;;10.43;100.00;99356.53;5004409;28;20042;-72
2023/03/10 01:56:01;;;;;;;12.63;7.38;;;;;;;9.80;100.00;99246.53;5002535;28;20887;-72
2023/03/10 01:58:33;;;;;;;12.45;8.02;;;;;;;9.73;100.00;99262.34;5002310;28;20060;-72
2023/03/10 02:00:58;;;;;;;10.32;7.85;;;;;;;10.33;100.00;99337.44;5006242;28;20457;-71
2023/03/10 02:03:31;;;;;;;12.55;8.23;;;;;;;9.79;100.00;99253.53;5002426;28;20045;-72
2023/03/10 02:06:05;;;;;;;11.02;7.85;;;;;;;10.55;100.00;99387.78;5004845;28;20049;-72
2023/03/10 02:08:36;;;;;;;12.73;7.68;;;;;;;9.79;100.00;99264.03;5006017;28;20048;-72
2023/03/10 02:11:03;;;;;;;11.30;7.72;;;;;;;9.75;100.00;99261.47;5001950;28;20040;-71
2023/03/10 02:13:28;;;;;;;12.20;8.55;;;;;;;9.75;100.00;99270.19;5006975;28;20072;-73
2023/03/10 02:15:54;;;;;;;10.50;8.25;;;;;;;10.46;100.00;99400.19;4994265;28;20908;-72
2023/03/10 02:18:21;;;;;;;14.95;7.82;;;;;;;9.43;100.00;99263.66;5001916;28;20201;-73
2023/03/10 02:20:57;;;;;;;16.15;8.93;;;;;;;10.34;100.00;99381.13;5007492;28;20097;-72
2023/03/10 02:24:00;;;;;;;13.50;9.80;;;;;;;10.12;100.00;99382.31;5005611;28;20256;-72
2023/03/10 02:26:48;;;;;;;13.00;9.30;;;;;;;9.40;100.00;99261.09;5004628;28;20029;-70
2023/03/10 02:29:29;;;;;;;12.40;7.85;;;;;;;10.19;100.00;99375.25;5001799;28;20038;-72
2023/03/10 02:31:56;;;;;;;12.80;8.35;;;;;;;10.25;100.00;99381.22;5005356;28;20081;-70
2023/03/10 02:34:24;;;;;;;16.23;8.48;;;;;;;10.14;100.00;99357.81;5007458;28;20049;-72
2023/03/10 02:36:49;;;;;;;13.05;7.50;;;;;;;9.86;100.00;99306.72;4997858;28;20193;-73
2023/03/10 02:39:15;;;;;;;11.60;7.88;;;;;;;10.04;100.00;99366.69;5004061;28;20041;-71
2023/03/10 02:41:41;;;;;;;13.00;8.45;;;;;;;9.27;100.00;99238.56;4994258;28;20452;-72
2023/03/10 02:44:12;;;;;;;13.50;9.23;;;;;;;9.27;100.00;99249.94;5019161;28;20041;-71
2023/03/10 02:46:37;;;;;;;11.25;7.28;;;;;;;9.87;100.00;99345.13;5003647;28;20061;-73
2023/03/10 02:49:05;;;;;;;13.90;9.35;;;;;;;9.46;100.00;99286.34;5007612;28;20042;-72
2023/03/10 02:51:34;;;;;;;13.70;8.60;;;;;;;9.28;100.00;99266.50;5008390;28;20050;-72
2023/03/10 02:54:00;;;;;;;16.55;8.77;;;;;;;10.03;100.00;99392.94;5003706;28;20053;-72
2023/03/10 02:56:27;;;;;;;12.68;8.15;;;;;;;9.82;100.00;99362.66;5003513;28;20041;-71
2023/03/10 02:58:53;;;;;;;11.77;8.82;;;;;;;9.71;100.00;99337.47;5001380;28;20038;-69
2023/03/10 03:01:18;;;;;;;14.88;8.75;;;;;;;9.91;100.00;99383.50;5001078;28;20081;-72
2023/03/10 03:03:44;;;;;;;12.82;8.43;;;;;;;9.02;100.00;99236.31;5005607;28;20077;-72
2023/03/10 03:06:09;;;;;;;12.30;8.68;;;;;;;9.43;100.00;99308.16;5008702;28;20153;-71
2023/03/10 03:08:35;;;;;;;14.18;8.40;;;;;;;9.61;100.00;99369.06;5002989;28;20511;-72
2023/03/10 03:11:01;;;;;;;8.93;7.95;;;;;;;9.76;100.00;99386.31;5006695;28;20116;-73
2023/03/10 03:13:26;;;;;;;12.50;9.70;;;;;;;8.94;100.00;99247.75;5003634;28;20080;-71
2023/03/10 03:15:52;;;;;;;16.98;10.25;;;;;;;9.56;100.00;99365.63;5008613;28;20045;-71
2023/03/10 03:18:17;;;;;;;12.73;10.63;;;;;;;9.51;100.00;99360.47;5006637;28;20046;-72
2023/03/10 03:20:43;;;;;;;14.95;11.32;;;;;;;8.84;100.00;99263.53;5001873;28;20069;-73
2023/03/10 03:23:09;;;;;;;16.30;12.52;;;;;;;9.25;100.00;99342.47;5004828;28;20038;-73
2023/03/10 03:25:40;;;;;;;21.73;16.05;;;;;;;9.36;100.00;99347.53;5007019;28;20078;-72
2023/03/10 03:28:08;;;;;;;25.70;18.13;;;;;;;9.06;100.00;99290.34;5005732;28;20512;-72
2023/03/10 03:30:34;;;;;;;27.70;19.02;;;;;;;8.70;100.00;99246.28;5005868;28;20139;-72
2023/03/10 03:33:02;;;;;;;33.13;20.20;;;;;;;9.33;100.00;99352.81;5005051;28;20718;-75
2023/03/10 03:35:32;;;;;;;37.58;24.95;;;;;;;8.33;100.00;99233.56;4999034;28;20042;-71
2023/03/10 03:37:58;;;;;;;41.58;27.13;;;;;;;8.76;100.00;99315.09;5004785;28;20080;-72
2023/03/10 03:40:25;;;;;;;39.17;26.45;;;;;;;8.53;100.00;99228.16;4998453;28;20045;-72
2023/03/10 03:42:52;;;;;;;42.05;27.45;;;;;;;8.37;100.00;99212.59;5006423;28;20038;-72
2023/03/10 03:45:21;;;;;;;42.72;25.45;;;;;;;9.10;100.00;99330.41;5004856;28;20050;-74
2023/03/10 03:47:47;;;;;;;43.90;25.75;;;;;;;9.12;100.00;99343.47;5007638;28;20050;-73
2023/03/10 03:50:14;;;;;;;43.55;26.52;;;;;;;8.45;100.00;99229.13;5006250;28;20449;-72
2023/03/10 03:52:40;;;;;;;54.67;27.75;;;;;;;9.00;100.00;99321.78;5005380;28;20128;-72
2023/03/10 03:55:07;;;;;;;46.20;26.98;;;;;;;8.85;100.00;99296.69;5002971;28;20214;-73
2023/03/10 03:57:32;;;;;;;48.75;27.77;;;;;;;7.98;100.00;99149.44;5006770;28;20073;-71
2023/03/10 03:59:58;;;;;;;38.13;25.95;;;;;;;8.53;100.00;99267.38;5007623;28;20096;-71
2023/03/10 04:02:24;;;;;;;40.50;25.20;;;;;;;8.83;100.00;99323.75;4999510;28;20554;-71
2023/03/10 04:04:51;;;;;;;42.25;26.52;;;;;;;8.90;100.00;99327.13;5007887;28;20105;-71
2023/03/10 04:07:16;;;;;;;36.83;25.92;;;;;;;8.84;100.00;99318.47;5002175;28;20095;-72
2023/03/10 04:09:42;;;;;;;41.42;27.40;;;;;;;8.74;100.00;99287.22;5000987;28;20465;-72
2023/03/10 04:12:08;;;;;;;36.10;25.27;;;;;;;8.48;100.00;99256.97;5005809;28;20056;-71
2023/03/10 04:14:35;;;;;;;34.42;25.23;;;;;;;8.19;100.00;99181.44;5006487;28;20045;-72
2023/03/10 04:17:01;;;;;;;44.28;27.77;;;;;;;7.85;100.00;99186.13;5007516;28;20038;-75
2023/03/10 04:19:26;;;;;;;43.10;26.13;;;;;;;7.94;100.00;99176.47;5007084;28;20061;-74
2023/03/10 04:21:52;;;;;;;36.08;23.17;;;;;;;8.53;100.00;99304.00;5003766;28;20042;-72
2023/03/10 04:24:17;;;;;;;34.05;23.58;;;;;;;7.67;100.00;99174.94;4999108;28;20038;-72
2023/03/10 04:26:43;;;;;;;38.08;24.60;;;;;;;7.28;100.00;99074.34;5005092;28;20073;-72
2023/03/10 04:29:08;;;;;;;44.42;27.00;;;;;;;8.35;100.00;99258.78;5007486;28;20088;-72
2023/03/10 04:31:34;;;;;;;39.42;22.85;;;;;;;7.96;100.00;99181.66;5006031;28;20049;-71
2023/03/10 04:33:59;;;;;;;38.97;26.67;;;;;;;8.06;100.00;99201.59;5005105;28;20034;-72
2023/03/10 04:36:25;;;;;;;38.97;25.75;;;;;;;8.59;100.00;99312.66;4998126;28;20141;-72
2023/03/10 04:38:50;;;;;;;36.13;21.35;;;;;;;7.69;100.00;99182.78;4998182;28;20442;-73
2023/03/10 04:41:16;;;;;;;35.47;25.02;;;;;;;8.64;100.00;99307.38;5002826;28;20029;-73
2023/03/10 04:43:42;;;;;;;37.35;24.90;;;;;;;8.52;100.00;99292.66;5006053;28;20075;-72
2023/03/10 04:46:07;;;;;;;48.05;26.50;;;;;;;8.03;100.00;99212.09;5004905;28;20494;-72
2023/03/10 04:48:33;;;;;;;34.85;24.88;;;;;;;8.68;100.00;99316.03;5000984;28;20046;-72
2023/03/10 04:51:01;;;;;;;34.17;24.13;;;;;;;8.61;100.00;99328.31;5003680;28;20053;-71
2023/03/10 04:53:27;;;;;;;36.00;25.42;;;;;;;8.59;100.00;99336.19;5006076;28;20478;-72
2023/03/10 04:55:53;;;;;;;36.20;23.67;;;;;;;8.60;100.00;99311.75;5006677;28;20042;-73
2023/03/10 04:58:21;;;;;;;44.13;26.58;;;;;;;7.88;100.00;99200.00;5004419;28;20516;-73
2023/03/10 05:00:46;;;;;;;37.35;25.27;;;;;;;8.38;100.00;99354.59;5002302;28;20049;-72
2023/03/10 05:03:12;;;;;;;40.33;26.65;;;;;;;8.54;100.00;99350.16;5000504;28;20498;-71
2023/03/10 05:05:38;;;;;;;40.80;25.63;;;;;;;7.88;100.00;99235.72;5000355;28;20038;-71
2023/03/10 05:08:04;;;;;;;36.60;26.45;;;;;;;7.91;100.00;99265.28;5005061;28;20026;-72
2023/03/10 05:10:29;;;;;;;42.63;24.08;;;;;;;8.56;100.00;99343.16;5004862;28;20038;-72
2023/03/10 05:12:55;;;;;;;42.65;24.20;;;;;;;7.75;100.00;99232.31;5006370;28;20045;-71
2023/03/10 05:15:21;;;;;;;42.22;27.00;;;;;;;8.48;100.00;99337.16;4999709;28;20069;-70
2023/03/10 05:17:46;;;;;;;38.42;26.75;;;;;;;8.81;100.00;99362.97;5001612;28;20048;-71
2023/03/10 05:20:13;;;;;;;39.30;25.63;;;;;;;8.03;100.00;99233.00;5002144;28;20034;-71
2023/03/10 05:22:39;;;;;;;36.03;24.20;;;;;;;8.91;100.00;99374.22;5002874;28;20118;-73
2023/03/10 05:25:05;;;;;;;35.08;24.23;;;;;;;8.85;100.00;99374.28;5006449;28;20748;-73
2023/03/10 05:27:32;;;;;;;38.85;24.52;;;;;;;8.84;100.00;99370.78;5009472;28;20038;-70
2023/03/10 05:29:58;;;;;;;36.20;24.75;;;;;;;9.12;100.00;99395.81;5010129;28;20133;-72
2023/03/10 05:32:24;;;;;;;40.05;26.52;;;;;;;9.00;100.00;99400.28;5004678;28;20125;-71
2023/03/10 05:34:50;;;;;;;38.33;25.83;;;;;;;9.05;100.00;99402.84;4994970;28;20493;-70
2023/03/10 05:37:17;;;;;;;40.50;27.33;;;;;;;8.49;100.00;99302.28;4999075;28;20061;-73
2023/03/10 05:39:43;;;;;;;41.13;28.10;;;;;;;8.28;100.00;99288.47;4999863;28;20053;-73
2023/03/10 05:42:11;;;;;;;42.35;27.92;;;;;;;8.22;100.00;99273.75;4998168;28;20164;-72
2023/03/10 05:44:38;;;;;;;46.17;28.50;;;;;;;8.93;100.00;99416.94;5009105;28;20073;-73
2023/03/10 05:47:04;;;;;;;44.33;28.45;;;;;;;8.85;100.00;99353.38;4997848;28;20501;-73
2023/03/10 05:49:30;;;;;;;38.53;27.85;;;;;;;9.13;100.00;99401.03;5008435;28;20050;-73
2023/03/10 05:51:56;;;;;;;50.22;28.42;;;;;;;9.31;100.00;99420.91;5007263;28;20041;-72
2023/03/10 05:54:22;;;;;;;38.45;28.65;;;;;;;8.80;100.00;99327.25;5005459;28;20496;-72
2023/03/10 05:56:47;;;;;;;42.13;28.48;;;;;;;8.69;100.00;99336.09;5007074;28;20680;-72
2023/03/10 05:59:13;;;;;;;43.47;26.63;;;;;;;9.20;100.00;99448.94;5008808;28;20075;-72
2023/03/10 06:01:38;;;;;;;37.30;26.17;;;;;;;9.06;100.00;99430.75;5000913;28;20055;-70
2023/03/10 06:04:04;;;;;;;40.03;28.00;;;;;;;9.27;100.00;99467.19;5006374;28;20044;-71
2023/03/10 06:06:29;;;;;;;46.20;29.67;;;;;;;8.90;100.00;99376.84;5008122;28;20052;-72
2023/03/10 06:08:55;;;;;;;39.45;27.67;;;;;;;8.88;100.00;99375.13;5006229;28;20526;-74
2023/03/10 06:11:21;;;;;;;42.70;26.15;;;;;;;9.37;100.00;99426.06;5004090;28;20034;-73
2023/03/10 06:13:47;;;;;;;40.15;28.40;;;;;;;9.43;100.00;99432.97;5006200;28;20400;-72
2023/03/10 06:16:12;;;;;;;45.95;31.02;;;;;;;9.41;100.00;99433.03;5006331;28;20050;-73
2023/03/10 06:18:38;;;;;;;42.53;27.83;;;;;;;9.55;100.00;99481.72;5006125;28;20050;-72
2023/03/10 06:21:07;;;;;;;45.67;28.55;;;;;;;9.10;100.00;99387.97;5010913;28;20052;-73
2023/03/10 06:23:32;;;;;;;40.70;27.58;;;;;;;8.98;100.00;99378.50;5004895;28;20125;-73
2023/03/10 06:26:02;;;;;;;40.40;27.85;;;;;;;9.18;100.00;99408.84;5010682;28;20104;-72
2023/03/10 06:28:31;;;;;;;39.67;28.42;;;;;;;9.71;100.00;99494.63;5002436;28;20486;-72
2023/03/10 06:31:02;;;;;;;36.03;26.92;;;;;;;9.83;100.00;99503.25;5007617;28;20480;-73
2023/03/10 06:33:28;;;;;;;36.28;23.65;;;;;;;8.93;100.00;99371.59;5010613;28;20058;-72
2023/03/10 06:35:54;;;;;;;35.47;25.10;;;;;;;9.61;100.00;99531.44;5006971;28;20081;-74
2023/03/10 06:38:20;;;;;;;40.33;25.15;;;;;;;9.01;100.00;99396.81;5005602;28;20050;-73
2023/03/10 06:40:46;;;;;;;36.13;23.52;;;;;;;9.86;100.00;99534.66;5010566;28;20041;-72
2023/03/10 06:43:11;;;;;;;35.08;23.75;;;;;;;9.77;100.00;99512.06;4999952;28;20046;-71
2023/03/10 06:45:40;;;;;;;30.48;22.20;;;;;;;9.34;100.00;99446.16;5008686;28;20046;-72
2023/03/10 06:48:05;;;;;;;28.00;22.27;;;;;;;10.10;100.00;99544.84;5007366;28;20049;-71
2023/03/10 06:50:31;;;;;;;30.45;21.63;;;;;;;10.05;100.00;99541.44;5003889;28;20469;-71
2023/03/10 06:52:56;;;;;;;32.97;24.50;;;;;;;10.25;100.00;99556.03;5003024;28;20098;-71
2023/03/10 06:55:22;;;;;;;35.00;22.88;;;;;;;10.30;100.00;99568.25;5006790;28;20069;-73
2023/03/10 06:57:50;;;;;;;39.10;24.17;;;;;;;9.67;100.00;99474.63;5000860;28;20326;-70
2023/03/10 07:00:17;;;;;;;30.20;23.52;;;;;;;10.07;100.00;99580.72;5005108;28;20053;-70
2023/03/10 07:02:42;;;;;;;31.58;22.35;;;;;;;10.22;100.00;99585.78;5004744;28;20053;-69
2023/03/10 07:05:11;;;;;;;38.38;22.60;;;;;;;10.15;100.00;99568.38;5002619;28;20398;-69
2023/03/10 07:07:37;;;;;;;42.25;22.38;;;;;;;10.27;100.00;99563.00;4984129;28;20042;-70
2023/03/10 07:10:04;;;;;;;30.33;23.58;;;;;;;10.55;100.00;99607.25;5000406;28;20521;-71
2023/03/10 07:12:29;;;;;;;31.08;21.33;;;;;;;9.73;100.00;99465.81;5004658;28;20595;-71
2023/03/10 07:14:55;;;;;;;30.13;22.63;;;;;;;9.72;100.00;99464.09;4998075;28;20061;-70
2023/03/10 07:17:20;;;;;;;32.72;24.30;;;;;;;10.63;100.00;99602.78;5004296;28;20061;-70
2023/03/10 07:19:46;;;;;;;34.95;23.38;;;;;;;9.23;100.00;99470.72;5004411;28;20540;-69
2023/03/10 07:22:11;;;;;;;33.83;21.75;;;;;;;9.85;100.00;99573.09;5005735;28;20045;-70
2023/03/10 07:24:37;;;;;;;31.50;22.35;;;;;;;9.49;100.00;99478.31;5004150;28;20196;-69
2023/03/10 07:27:03;;;;;;;27.25;19.85;;;;;;;9.97;100.00;99584.31;5007771;28;20611;-69
2023/03/10 07:29:28;;;;;;;32.28;22.60;;;;;;;10.28;100.00;99591.00;4995270;28;20041;-71
2023/03/10 07:31:54;;;;;;;31.95;21.88;;;;;;;10.13;100.00;99592.00;5007342;28;20052;-70
2023/03/10 07:34:20;;;;;;;42.35;22.75;;;;;;;10.51;100.00;99593.34;5005325;28;20049;-70
2023/03/10 07:36:45;;;;;;;33.70;22.70;;;;;;;10.77;100.00;99598.22;4997656;28;20046;-70
2023/03/10 07:39:11;;;;;;;34.58;22.85;;;;;;;10.66;100.00;99570.41;5004005;28;20686;-69
2023/03/10 07:41:36;;;;;;;37.15;22.63;;;;;;;10.31;100.00;99504.41;5004618;28;20133;-71
2023/03/10 07:44:02;;;;;;;33.63;21.92;;;;;;;11.11;100.00;99620.47;5005663;28;20451;-70
2023/03/10 07:46:27;;;;;;;28.73;20.70;;;;;;;11.12;100.00;99603.81;5000138;28;20057;-69
2023/03/10 07:48:54;;;;;;;31.23;21.20;;;;;;;10.78;100.00;99509.88;5004794;28;20129;-71
2023/03/10 07:51:20;;;;;;;30.77;21.80;;;;;;;11.15;100.00;99604.66;5003022;28;20486;-69
2023/03/10 07:53:45;;;;;;;30.55;22.88;;;;;;;10.76;100.00;99601.72;5000717;28;20046;-69
2023/03/10 07:56:12;;;;;;;35.88;22.40;;;;;;;10.75;100.00;99565.88;5005642;28;20103;-71
2023/03/10 07:58:38;;;;;;;33.22;20.20;;;;;;;11.30;100.00;99635.06;5006315;28;20044;-71
2023/03/10 08:01:05;;;;;;;34.40;20.30;;;;;;;11.07;100.00;99530.38;4998112;28;20084;-69
2023/03/10 08:03:32;;;;;;;31.67;21.33;;;;;;;10.47;100.00;99509.47;5005501;28;20053;-70
2023/03/10 08:05:58;;;;;;;27.80;20.70;;;;;;;10.85;100.00;99513.25;5001691;28;20667;-72
2023/03/10 08:08:25;;;;;;;28.83;20.65;;;;;;;11.26;100.00;99585.22;4999653;28;20038;-70
2023/03/10 08:11:03;;;;;;;25.60;19.15;;;;;;;11.83;100.00;99664.84;5001850;28;20069;-68
2023/03/10 08:13:28;;;;;;;25.50;19.13;;;;;;;11.80;100.00;99635.13;5005530;28;20061;-70
2023/03/10 08:15:54;;;;;;;26.02;20.42;;;;;;;11.81;100.00;99666.63;5006041;28;20143;-69
2023/03/10 08:18:19;;;;;;;26.50;19.33;;;;;;;11.28;100.00;99533.56;5002401;28;20565;-70
2023/03/10 08:20:44;;;;;;;27.55;18.35;;;;;;;11.95;100.00;99671.69;5008666;28;20064;-69
2023/03/10 08:23:10;;;;;;;29.77;19.98;;;;;;;11.65;100.00;99585.47;5002393;28;20136;-70
2023/03/10 08:25:37;;;;;;;25.27;18.23;;;;;;;11.48;100.00;99552.47;5001457;28;20037;-69
2023/03/10 08:28:02;;;;;;;30.98;20.17;;;;;;;12.61;100.00;99677.47;5005707;28;20037;-70
2023/03/10 08:30:28;;;;;;;28.73;18.00;;;;;;;12.51;100.00;99632.06;5006238;28;20046;-70
2023/03/10 08:32:53;;;;;;;30.00;19.63;;;;;;;12.41;100.00;99665.59;5000910;28;20077;-72
2023/03/10 08:35:19;;;;;;;28.08;21.40;;;;;;;12.14;100.00;99652.94;4998201;28;20057;-70
2023/03/10 08:37:45;;;;;;;23.05;17.33;;;;;;;12.30;100.00;99662.28;5000052;28;20042;-69
2023/03/10 08:40:13;;;;;;;38.30;19.50;;;;;;;12.24;100.00;99563.34;5002021;28;20046;-72
2023/03/10 08:42:39;;;;;;;26.50;18.52;;;;;;;13.08;100.00;99676.44;5004079;28;20406;-71
2023/03/10 08:45:04;;;;;;;36.15;20.90;;;;;;;12.95;100.00;99608.31;5000302;28;20052;-73
2023/03/10 08:47:30;;;;;;;27.15;20.08;;;;;;;13.37;100.00;99677.63;5000404;28;20129;-69
2023/03/10 08:49:55;;;;;;;42.28;20.58;;;;;;;13.06;100.00;99583.47;5000646;28;20037;-71
2023/03/10 08:52:21;;;;;;;26.52;19.00;;;;;;;13.28;100.00;99683.09;5003444;28;20049;-71
2023/03/10 08:54:46;;;;;;;28.75;20.33;;;;;;;13.36;100.00;99670.59;4998933;28;20050;-69
2023/03/10 08:57:12;;;;;;;47.13;21.80;;;;;;;13.81;100.00;99678.28;4997005;28;20077;-70
2023/03/10 08:59:37;;;;;;;35.13;19.27;;;;;;;13.11;100.00;99559.66;5002720;28;20119;-70
2023/03/10 09:02:03;;;;;;;43.45;20.38;;;;;;;13.75;100.00;99670.53;5006088;28;20038;-70
2023/03/10 09:04:28;;;;;;;32.17;19.95;;;;;;;13.34;100.00;99584.56;4997274;28;20049;-71
2023/03/10 09:06:54;;;;;;;31.48;17.88;;;;;;;14.12;100.00;99662.56;5003362;28;20112;-70
2023/03/10 09:09:19;;;;;;;29.35;19.50;;;;;;;14.39;100.00;99675.03;4997350;28;20042;-70
2023/03/10 09:11:45;;;;;;;28.90;17.60;;;;;;;14.33;100.00;99682.22;5004192;28;20107;-70
2023/03/10 09:14:11;;;;;;;22.55;17.58;;;;;;;13.66;100.00;99605.72;5005377;28;20447;-69
2023/03/10 09:16:38;;;;;;;26.45;17.55;;;;;;;13.87;100.00;99656.19;4998507;28;20080;-69
2023/03/10 09:19:04;;;;;;;29.77;18.13;;;;;;;14.08;100.00;99650.34;4997070;28;20466;-70
2023/03/10 09:21:31;;;;;;;29.35;17.92;;;;;;;13.72;100.00;99575.72;5005609;28;20038;-70
2023/03/10 09:23:57;;;;;;;26.58;15.88;;;;;;;14.33;100.00;99641.78;5002923;28;20041;-70
2023/03/10 09:26:23;;;;;;;26.48;17.60;;;;;;;14.54;100.00;99661.47;5004024;28;20045;-70
2023/03/10 09:28:49;;;;;;;33.00;17.08;;;;;;;14.56;100.00;99667.53;5003664;28;20030;-72
2023/03/10 09:31:21;;;;;;;26.70;17.48;;;;;;;14.81;100.00;99656.28;5001355;28;20514;-74
2023/03/10 09:33:47;;;;;;;27.30;16.13;;;;;;;14.12;100.00;99535.06;5001219;28;20042;-70
2023/03/10 09:36:13;;;;;;;24.25;15.23;;;;;;;14.41;100.00;99543.88;4996470;28;20053;-69
2023/03/10 09:38:39;;;;;;;28.85;17.95;;;;;;;15.01;100.00;99645.09;5000845;28;20041;-71
2023/03/10 09:41:15;;;;;;;27.42;17.73;;;;;;;15.11;100.00;99647.41;4996422;28;20549;-69
2023/03/10 09:43:49;;;;;;;31.55;17.52;;;;;;;15.17;100.00;99644.59;4999925;28;20498;-70
2023/03/10 09:46:49;;;;;;;36.88;20.15;;;;;;;15.34;100.00;99644.06;4997120;28;20050;-70
2023/03/10 09:49:38;;;;;;;27.08;18.02;;;;;;;15.45;100.00;99633.13;5003132;28;20046;-69
2023/03/10 09:52:39;;;;;;;27.10;17.80;;;;;;;15.63;100.00;99640.44;5002648;28;20798;-72
2023/03/10 09:55:17;;;;;;;27.88;17.60;;;;;;;14.46;100.00;99431.97;5001112;28;20054;-70
2023/03/10 09:57:44;;;;;;;26.52;18.52;;;;;;;15.27;100.00;99618.72;4995159;28;20044;-69
2023/03/10 10:00:20;;;;;;;34.70;18.00;;;;;;;15.37;100.00;99611.38;5000901;28;20065;-69
2023/03/10 10:02:48;;;;;;;26.35;16.67;;;;;;;14.74;100.00;99534.97;5001587;28;20140;-69
2023/03/10 10:05:26;;;;;;;22.50;15.57;;;;;;;15.34;100.00;99603.53;5003616;28;20124;-70
2023/03/10 10:07:56;;;;;;;22.70;15.45;;;;;;;15.53;100.00;99644.31;5004951;28;20034;-69
2023/03/10 10:10:28;;;;;;;30.80;17.80;;;;;;;15.88;100.00;99618.50;5003528;28;20081;-69
2023/03/10 10:12:59;;;;;;;25.40;18.35;;;;;;;15.92;100.00;99601.63;4999105;28;20053;-70
2023/03/10 10:15:26;;;;;;;28.35;16.52;;;;;;;16.20;100.00;99622.66;5004301;28;20494;-69
2023/03/10 10:18:04;;;;;;;84.07;18.55;;;;;;;15.79;100.00;99621.47;5005646;28;20049;-69
2023/03/10 10:20:38;;;;;;;31.85;17.98;;;;;;;15.57;100.00;99616.00;5007784;28;20112;-70
2023/03/10 10:23:14;;;;;;;21.77;15.43;;;;;;;15.03;100.00;99512.06;5009122;28;20048;-74
2023/03/10 10:25:39;;;;;;;27.27;16.50;;;;;;;16.11;100.00;99599.19;5000813;28;20054;-70
2023/03/10 10:28:19;;;;;;;25.15;14.98;;;;;;;16.35;100.00;99588.59;5002098;28;20049;-70
2023/03/10 10:30:45;;;;;;;20.27;15.15;;;;;;;16.42;97.54;99598.06;5000714;28;20046;-70
2023/03/10 10:33:13;;;;;;;21.00;15.43;;;;;;;16.51;98.62;99588.91;5004490;28;20489;-70
2023/03/10 10:35:41;;;;;;;17.75;13.95;;;;;;;16.60;95.82;99604.44;4998011;28;20049;-71
2023/03/10 10:38:28;;;;;;;25.63;17.15;;;;;;;16.67;94.61;99537.06;4985467;28;20039;-70
2023/03/10 10:41:14;;;;;;;23.75;14.95;;;;;;;16.22;92.99;99493.78;4981520;28;20474;-70
2023/03/10 10:43:44;;;;;;;21.40;14.27;;;;;;;16.65;91.40;99521.22;5002326;28;20151;-71
2023/03/10 10:46:12;;;;;;;14.98;13.00;;;;;;;16.72;88.53;99481.25;5006419;28;20050;-71
2023/03/10 10:48:41;;;;;;;11.45;8.38;;;;;;;17.58;80.03;99587.28;5003407;28;20513;-69
2023/03/10 10:51:29;;;;;;;18.30;11.25;;;;;;;17.72;79.76;99581.41;5001838;28;20402;-71
2023/03/10 10:54:01;;;;;;;31.67;10.57;;;;;;;16.93;78.76;99477.75;4999997;28;20047;-72
2023/03/10 10:56:27;;;;;;;18.20;10.13;;;;;;;17.67;75.71;99581.59;4980529;28;20042;-72
2023/03/10 10:59:04;;;;;;;15.43;9.90;;;;;;;17.13;74.35;99479.56;4980172;28;20140;-70
2023/03/10 11:02:03;;;;;;;12.68;9.60;;;;;;;17.73;76.97;99564.56;4985756;28;20050;-70
2023/03/10 11:04:49;;;;;;;14.70;9.68;;;;;;;18.00;75.40;99548.38;5002102;28;20042;-71
2023/03/10 11:07:22;;;;;;;13.63;9.85;;;;;;;18.14;71.11;99495.53;5002279;28;20120;-70
2023/03/10 11:09:48;;;;;;;18.30;11.43;;;;;;;17.48;73.77;99528.47;5003520;28;20042;-70
2023/03/10 11:12:25;;;;;;;14.88;9.85;;;;;;;18.27;74.13;99527.69;5003968;28;20049;-71
2023/03/10 11:15:03;;;;;;;34.63;9.80;;;;;;;18.37;69.36;99454.63;5007613;28;20077;-71
2023/03/10 11:18:06;;;;;;;15.10;9.32;;;;;;;18.75;66.91;99523.66;5007409;28;20030;-72
2023/03/10 11:20:50;;;;;;;13.60;8.45;;;;;;;19.17;63.11;99531.41;5002258;28;20177;-72